sensor_id;sensor_type;location;lat;lon;timestamp;P1;durP1;ratioP1;P2;durP2;ratioP2
870;SDS011;422;51.280;7.236;2023-08-31T00:01:43;11.87;;;5.83;;
870;SDS011;422;51.280;7.236;2023-08-31T00:04:11;6.83;;;6.10;;
870;SDS011;422;51.280;7.236;2023-08-31T00:06:39;6.83;;;5.10;;
870;SDS011;422;51.280;7.236;2023-08-31T00:09:07;7.70;;;5.37;;
870;SDS011;422;51.280;7.236;2023-08-31T00:11:36;8.53;;;5.63;;
870;SDS011;422;51.280;7.236;2023-08-31T00:14:03;7.80;;;5.73;;
870;SDS011;422;51.280;7.236;2023-08-31T00:16:31;6.67;;;5.80;;
870;SDS011;422;51.280;7.236;2023-08-31T00:18:59;8.37;;;5.80;;
870;SDS011;422;51.280;7.236;2023-08-31T00:21:26;7.90;;;6.30;;
870;SDS011;422;51.280;7.236;2023-08-31T00:23:53;9.07;;;5.27;;
870;SDS011;422;51.280;7.236;2023-08-31T00:26:20;9.00;;;5.50;;
870;SDS011;422;51.280;7.236;2023-08-31T00:28:49;15.10;;;6.53;;
870;SDS011;422;51.280;7.236;2023-08-31T00:31:16;8.13;;;5.30;;
870;SDS011;422;51.280;7.236;2023-08-31T00:33:43;11.30;;;5.70;;
870;SDS011;422;51.280;7.236;2023-08-31T00:36:11;8.83;;;6.17;;
870;SDS011;422;51.280;7.236;2023-08-31T00:38:38;10.90;;;5.97;;
870;SDS011;422;51.280;7.236;2023-08-31T00:41:05;9.00;;;5.90;;
870;SDS011;422;51.280;7.236;2023-08-31T00:43:32;9.70;;;5.40;;
870;SDS011;422;51.280;7.236;2023-08-31T00:46:01;10.30;;;5.60;;
870;SDS011;422;51.280;7.236;2023-08-31T00:48:29;8.27;;;6.03;;
870;SDS011;422;51.280;7.236;2023-08-31T00:50:56;7.47;;;5.10;;
870;SDS011;422;51.280;7.236;2023-08-31T00:53:26;9.13;;;6.33;;
870;SDS011;422;51.280;7.236;2023-08-31T00:55:53;6.97;;;5.57;;
870;SDS011;422;51.280;7.236;2023-08-31T00:58:20;10.63;;;5.70;;
870;SDS011;422;51.280;7.236;2023-08-31T01:00:50;7.40;;;5.23;;
870;SDS011;422;51.280;7.236;2023-08-31T01:03:27;12.80;;;5.60;;
870;SDS011;422;51.280;7.236;2023-08-31T01:06:05;10.57;;;6.00;;
870;SDS011;422;51.280;7.236;2023-08-31T01:08:38;8.43;;;6.30;;
870;SDS011;422;51.280;7.236;2023-08-31T01:11:16;11.60;;;6.03;;
870;SDS011;422;51.280;7.236;2023-08-31T01:13:58;8.47;;;5.83;;
870;SDS011;422;51.280;7.236;2023-08-31T01:19:44;7.80;;;5.53;;
870;SDS011;422;51.280;7.236;2023-08-31T01:22:18;8.30;;;5.77;;
870;SDS011;422;51.280;7.236;2023-08-31T01:24:56;8.87;;;6.47;;
870;SDS011;422;51.280;7.236;2023-08-31T01:27:28;10.20;;;6.13;;
870;SDS011;422;51.280;7.236;2023-08-31T01:29:57;12.23;;;6.47;;
870;SDS011;422;51.280;7.236;2023-08-31T01:32:24;10.50;;;6.60;;
870;SDS011;422;51.280;7.236;2023-08-31T01:34:51;8.00;;;6.60;;
870;SDS011;422;51.280;7.236;2023-08-31T01:37:22;6.47;;;5.50;;
870;SDS011;422;51.280;7.236;2023-08-31T01:39:58;12.40;;;7.00;;
870;SDS011;422;51.280;7.236;2023-08-31T01:42:30;12.80;;;7.00;;
870;SDS011;422;51.280;7.236;2023-08-31T01:44:59;11.50;;;7.00;;
870;SDS011;422;51.280;7.236;2023-08-31T01:47:29;8.80;;;6.33;;
870;SDS011;422;51.280;7.236;2023-08-31T01:49:57;9.77;;;7.03;;
870;SDS011;422;51.280;7.236;2023-08-31T01:52:24;12.20;;;6.50;;
870;SDS011;422;51.280;7.236;2023-08-31T01:54:52;8.93;;;6.33;;
870;SDS011;422;51.280;7.236;2023-08-31T01:57:21;7.93;;;6.30;;
870;SDS011;422;51.280;7.236;2023-08-31T01:59:48;8.80;;;5.70;;
870;SDS011;422;51.280;7.236;2023-08-31T02:02:15;8.60;;;5.70;;
870;SDS011;422;51.280;7.236;2023-08-31T02:04:43;7.50;;;6.33;;
870;SDS011;422;51.280;7.236;2023-08-31T02:07:10;7.53;;;5.70;;
870;SDS011;422;51.280;7.236;2023-08-31T02:09:37;7.70;;;6.33;;
870;SDS011;422;51.280;7.236;2023-08-31T02:12:04;10.07;;;7.00;;
870;SDS011;422;51.280;7.236;2023-08-31T02:14:33;8.27;;;6.10;;
870;SDS011;422;51.280;7.236;2023-08-31T02:17:00;9.20;;;6.57;;
870;SDS011;422;51.280;7.236;2023-08-31T02:19:27;8.73;;;6.93;;
870;SDS011;422;51.280;7.236;2023-08-31T02:21:54;9.17;;;6.80;;
870;SDS011;422;51.280;7.236;2023-08-31T02:24:21;9.20;;;7.47;;
870;SDS011;422;51.280;7.236;2023-08-31T02:26:49;9.10;;;6.80;;
870;SDS011;422;51.280;7.236;2023-08-31T02:29:16;6.80;;;5.83;;
870;SDS011;422;51.280;7.236;2023-08-31T02:31:44;9.73;;;6.10;;
870;SDS011;422;51.280;7.236;2023-08-31T02:34:12;8.73;;;5.70;;
870;SDS011;422;51.280;7.236;2023-08-31T02:36:39;10.90;;;5.57;;
870;SDS011;422;51.280;7.236;2023-08-31T02:39:06;6.70;;;6.00;;
870;SDS011;422;51.280;7.236;2023-08-31T02:41:34;6.40;;;5.30;;
870;SDS011;422;51.280;7.236;2023-08-31T02:44:01;6.30;;;5.70;;
870;SDS011;422;51.280;7.236;2023-08-31T02:46:28;7.03;;;5.60;;
870;SDS011;422;51.280;7.236;2023-08-31T02:48:57;7.03;;;5.27;;
870;SDS011;422;51.280;7.236;2023-08-31T02:51:24;6.07;;;4.67;;
870;SDS011;422;51.280;7.236;2023-08-31T02:53:51;8.33;;;5.30;;
870;SDS011;422;51.280;7.236;2023-08-31T02:56:19;8.60;;;5.57;;
870;SDS011;422;51.280;7.236;2023-08-31T02:58:46;9.20;;;6.40;;
870;SDS011;422;51.280;7.236;2023-08-31T03:01:13;7.10;;;5.53;;
870;SDS011;422;51.280;7.236;2023-08-31T03:03:41;8.10;;;5.30;;
870;SDS011;422;51.280;7.236;2023-08-31T03:06:12;11.73;;;5.90;;
870;SDS011;422;51.280;7.236;2023-08-31T03:08:40;7.30;;;5.70;;
870;SDS011;422;51.280;7.236;2023-08-31T03:11:07;9.30;;;7.13;;
870;SDS011;422;51.280;7.236;2023-08-31T03:13:35;8.13;;;7.33;;
870;SDS011;422;51.280;7.236;2023-08-31T03:16:02;9.40;;;7.93;;
870;SDS011;422;51.280;7.236;2023-08-31T03:18:29;9.07;;;7.77;;
870;SDS011;422;51.280;7.236;2023-08-31T03:20:56;11.33;;;7.57;;
870;SDS011;422;51.280;7.236;2023-08-31T03:23:25;9.77;;;8.77;;
870;SDS011;422;51.280;7.236;2023-08-31T03:25:53;11.23;;;8.07;;
870;SDS011;422;51.280;7.236;2023-08-31T03:28:20;10.30;;;9.30;;
870;SDS011;422;51.280;7.236;2023-08-31T03:30:53;10.27;;;9.23;;
870;SDS011;422;51.280;7.236;2023-08-31T03:33:21;10.13;;;9.13;;
870;SDS011;422;51.280;7.236;2023-08-31T03:35:48;8.73;;;7.83;;
870;SDS011;422;51.280;7.236;2023-08-31T03:38:15;10.43;;;9.33;;
870;SDS011;422;51.280;7.236;2023-08-31T03:40:44;10.77;;;9.67;;
870;SDS011;422;51.280;7.236;2023-08-31T03:43:19;10.40;;;9.17;;
870;SDS011;422;51.280;7.236;2023-08-31T03:45:46;11.47;;;8.27;;
870;SDS011;422;51.280;7.236;2023-08-31T03:48:14;11.60;;;8.57;;
870;SDS011;422;51.280;7.236;2023-08-31T03:50:41;10.10;;;8.53;;
870;SDS011;422;51.280;7.236;2023-08-31T03:53:08;9.67;;;8.67;;
870;SDS011;422;51.280;7.236;2023-08-31T03:55:35;10.53;;;8.37;;
870;SDS011;422;51.280;7.236;2023-08-31T03:58:05;9.63;;;8.70;;
870;SDS011;422;51.280;7.236;2023-08-31T04:00:32;13.33;;;9.13;;
870;SDS011;422;51.280;7.236;2023-08-31T04:02:59;10.40;;;9.30;;
870;SDS011;422;51.280;7.236;2023-08-31T04:05:26;10.63;;;9.53;;
870;SDS011;422;51.280;7.236;2023-08-31T04:07:54;10.80;;;8.93;;
870;SDS011;422;51.280;7.236;2023-08-31T04:10:21;15.53;;;9.80;;
870;SDS011;422;51.280;7.236;2023-08-31T04:12:49;11.53;;;10.33;;
870;SDS011;422;51.280;7.236;2023-08-31T04:15:17;12.60;;;11.27;;
870;SDS011;422;51.280;7.236;2023-08-31T04:17:44;13.73;;;10.90;;
870;SDS011;422;51.280;7.236;2023-08-31T04:20:12;13.03;;;11.30;;
870;SDS011;422;51.280;7.236;2023-08-31T04:22:39;13.87;;;12.20;;
870;SDS011;422;51.280;7.236;2023-08-31T04:25:06;15.53;;;13.30;;
870;SDS011;422;51.280;7.236;2023-08-31T04:27:34;13.60;;;12.17;;
870;SDS011;422;51.280;7.236;2023-08-31T04:30:05;17.37;;;14.37;;
870;SDS011;422;51.280;7.236;2023-08-31T04:32:34;18.23;;;13.97;;
870;SDS011;422;51.280;7.236;2023-08-31T04:35:02;16.70;;;14.33;;
870;SDS011;422;51.280;7.236;2023-08-31T04:37:30;17.90;;;16.10;;
870;SDS011;422;51.280;7.236;2023-08-31T04:39:58;17.67;;;15.73;;
870;SDS011;422;51.280;7.236;2023-08-31T04:42:25;21.33;;;16.30;;
870;SDS011;422;51.280;7.236;2023-08-31T04:44:53;16.73;;;15.00;;
870;SDS011;422;51.280;7.236;2023-08-31T04:47:20;20.60;;;15.87;;
870;SDS011;422;51.280;7.236;2023-08-31T04:49:48;15.97;;;14.23;;
870;SDS011;422;51.280;7.236;2023-08-31T04:52:15;17.50;;;15.67;;
870;SDS011;422;51.280;7.236;2023-08-31T04:54:43;17.07;;;15.30;;
870;SDS011;422;51.280;7.236;2023-08-31T04:57:10;22.70;;;16.83;;
870;SDS011;422;51.280;7.236;2023-08-31T04:59:37;17.70;;;15.63;;
870;SDS011;422;51.280;7.236;2023-08-31T05:02:04;18.47;;;16.47;;
870;SDS011;422;51.280;7.236;2023-08-31T05:04:31;18.57;;;16.47;;
870;SDS011;422;51.280;7.236;2023-08-31T05:07:00;18.93;;;17.13;;
870;SDS011;422;51.280;7.236;2023-08-31T05:09:28;21.43;;;17.37;;
870;SDS011;422;51.280;7.236;2023-08-31T05:11:59;18.87;;;16.87;;
870;SDS011;422;51.280;7.236;2023-08-31T05:14:27;17.43;;;14.37;;
870;SDS011;422;51.280;7.236;2023-08-31T05:16:54;24.27;;;17.27;;
870;SDS011;422;51.280;7.236;2023-08-31T05:19:22;19.77;;;16.10;;
870;SDS011;422;51.280;7.236;2023-08-31T05:21:49;19.73;;;16.80;;
870;SDS011;422;51.280;7.236;2023-08-31T05:24:18;20.03;;;17.27;;
870;SDS011;422;51.280;7.236;2023-08-31T05:26:45;18.40;;;16.53;;
870;SDS011;422;51.280;7.236;2023-08-31T05:29:12;22.37;;;17.87;;
870;SDS011;422;51.280;7.236;2023-08-31T05:31:40;18.77;;;16.77;;
870;SDS011;422;51.280;7.236;2023-08-31T05:34:08;19.07;;;17.03;;
870;SDS011;422;51.280;7.236;2023-08-31T05:36:36;21.10;;;17.50;;
870;SDS011;422;51.280;7.236;2023-08-31T05:39:03;19.17;;;17.20;;
870;SDS011;422;51.280;7.236;2023-08-31T05:41:32;19.67;;;16.83;;
870;SDS011;422;51.280;7.236;2023-08-31T05:43:59;18.23;;;16.23;;
870;SDS011;422;51.280;7.236;2023-08-31T05:46:26;18.10;;;16.20;;
870;SDS011;422;51.280;7.236;2023-08-31T05:48:53;20.03;;;15.57;;
870;SDS011;422;51.280;7.236;2023-08-31T05:51:21;17.40;;;14.87;;
870;SDS011;422;51.280;7.236;2023-08-31T05:53:48;16.50;;;14.80;;
870;SDS011;422;51.280;7.236;2023-08-31T05:56:15;17.90;;;15.93;;
870;SDS011;422;51.280;7.236;2023-08-31T05:58:44;17.30;;;14.23;;
870;SDS011;422;51.280;7.236;2023-08-31T06:01:12;23.83;;;14.90;;
870;SDS011;422;51.280;7.236;2023-08-31T06:03:39;15.83;;;14.33;;
870;SDS011;422;51.280;7.236;2023-08-31T06:06:06;15.40;;;13.97;;
870;SDS011;422;51.280;7.236;2023-08-31T06:08:34;15.10;;;13.73;;
870;SDS011;422;51.280;7.236;2023-08-31T06:11:01;14.97;;;13.33;;
870;SDS011;422;51.280;7.236;2023-08-31T06:13:28;14.40;;;12.90;;
870;SDS011;422;51.280;7.236;2023-08-31T06:15:57;15.00;;;13.50;;
870;SDS011;422;51.280;7.236;2023-08-31T06:18:25;15.50;;;14.00;;
870;SDS011;422;51.280;7.236;2023-08-31T06:20:52;13.03;;;11.70;;
870;SDS011;422;51.280;7.236;2023-08-31T06:23:19;14.47;;;13.17;;
870;SDS011;422;51.280;7.236;2023-08-31T06:25:46;14.67;;;13.17;;
870;SDS011;422;51.280;7.236;2023-08-31T06:28:13;13.67;;;12.27;;
870;SDS011;422;51.280;7.236;2023-08-31T06:30:41;22.30;;;13.17;;
870;SDS011;422;51.280;7.236;2023-08-31T06:33:14;15.17;;;13.73;;
870;SDS011;422;51.280;7.236;2023-08-31T06:35:42;17.40;;;12.33;;
870;SDS011;422;51.280;7.236;2023-08-31T06:38:11;14.33;;;13.03;;
870;SDS011;422;51.280;7.236;2023-08-31T06:40:39;15.20;;;11.83;;
870;SDS011;422;51.280;7.236;2023-08-31T06:43:08;13.33;;;11.93;;
870;SDS011;422;51.280;7.236;2023-08-31T06:45:35;11.87;;;10.83;;
870;SDS011;422;51.280;7.236;2023-08-31T06:48:03;14.60;;;12.30;;
870;SDS011;422;51.280;7.236;2023-08-31T06:50:32;12.57;;;11.30;;
870;SDS011;422;51.280;7.236;2023-08-31T06:53:00;12.97;;;11.53;;
870;SDS011;422;51.280;7.236;2023-08-31T06:55:28;12.20;;;11.10;;
870;SDS011;422;51.280;7.236;2023-08-31T06:57:57;11.57;;;10.60;;
870;SDS011;422;51.280;7.236;2023-08-31T07:00:24;12.47;;;11.17;;
870;SDS011;422;51.280;7.236;2023-08-31T07:02:51;12.57;;;11.37;;
870;SDS011;422;51.280;7.236;2023-08-31T07:05:19;11.63;;;10.53;;
870;SDS011;422;51.280;7.236;2023-08-31T07:07:53;10.60;;;9.60;;
870;SDS011;422;51.280;7.236;2023-08-31T07:10:20;11.67;;;10.57;;
870;SDS011;422;51.280;7.236;2023-08-31T07:12:48;13.97;;;11.17;;
870;SDS011;422;51.280;7.236;2023-08-31T07:15:15;9.63;;;8.43;;
870;SDS011;422;51.280;7.236;2023-08-31T07:17:43;10.50;;;9.50;;
870;SDS011;422;51.280;7.236;2023-08-31T07:20:10;10.57;;;8.60;;
870;SDS011;422;51.280;7.236;2023-08-31T07:22:38;13.07;;;9.23;;
870;SDS011;422;51.280;7.236;2023-08-31T07:25:08;9.07;;;8.10;;
870;SDS011;422;51.280;7.236;2023-08-31T07:27:35;8.37;;;7.57;;
870;SDS011;422;51.280;7.236;2023-08-31T07:30:03;8.63;;;7.80;;
870;SDS011;422;51.280;7.236;2023-08-31T07:32:31;7.90;;;7.20;;
870;SDS011;422;51.280;7.236;2023-08-31T07:34:59;8.93;;;8.07;;
870;SDS011;422;51.280;7.236;2023-08-31T07:37:26;8.43;;;7.50;;
870;SDS011;422;51.280;7.236;2023-08-31T07:39:53;8.80;;;7.90;;
870;SDS011;422;51.280;7.236;2023-08-31T07:42:22;7.53;;;6.83;;
870;SDS011;422;51.280;7.236;2023-08-31T07:44:49;7.97;;;6.70;;
870;SDS011;422;51.280;7.236;2023-08-31T07:47:16;7.13;;;6.43;;
870;SDS011;422;51.280;7.236;2023-08-31T07:49:43;13.23;;;6.90;;
870;SDS011;422;51.280;7.236;2023-08-31T07:52:10;8.40;;;6.83;;
870;SDS011;422;51.280;7.236;2023-08-31T07:54:38;7.23;;;5.73;;
870;SDS011;422;51.280;7.236;2023-08-31T07:57:05;7.70;;;6.80;;
870;SDS011;422;51.280;7.236;2023-08-31T07:59:33;8.20;;;7.40;;
870;SDS011;422;51.280;7.236;2023-08-31T08:02:04;6.87;;;6.27;;
870;SDS011;422;51.280;7.236;2023-08-31T08:04:32;6.93;;;5.43;;
870;SDS011;422;51.280;7.236;2023-08-31T08:06:59;6.10;;;5.50;;
870;SDS011;422;51.280;7.236;2023-08-31T08:09:26;5.60;;;5.00;;
870;SDS011;422;51.280;7.236;2023-08-31T08:11:54;6.10;;;4.93;;
870;SDS011;422;51.280;7.236;2023-08-31T08:14:21;8.40;;;5.60;;
870;SDS011;422;51.280;7.236;2023-08-31T08:16:49;5.97;;;4.67;;
870;SDS011;422;51.280;7.236;2023-08-31T08:19:20;7.90;;;4.97;;
870;SDS011;422;51.280;7.236;2023-08-31T08:21:48;7.63;;;4.67;;
870;SDS011;422;51.280;7.236;2023-08-31T08:24:16;5.10;;;4.30;;
870;SDS011;422;51.280;7.236;2023-08-31T08:26:43;8.03;;;4.00;;
870;SDS011;422;51.280;7.236;2023-08-31T08:29:10;4.53;;;3.87;;
870;SDS011;422;51.280;7.236;2023-08-31T08:31:38;5.67;;;3.80;;
870;SDS011;422;51.280;7.236;2023-08-31T08:34:06;4.80;;;3.77;;
870;SDS011;422;51.280;7.236;2023-08-31T08:36:34;4.77;;;3.90;;
870;SDS011;422;51.280;7.236;2023-08-31T08:39:01;5.47;;;3.60;;
870;SDS011;422;51.280;7.236;2023-08-31T08:41:29;4.60;;;3.70;;
870;SDS011;422;51.280;7.236;2023-08-31T08:44:00;7.23;;;3.93;;
870;SDS011;422;51.280;7.236;2023-08-31T08:46:29;7.17;;;4.27;;
870;SDS011;422;51.280;7.236;2023-08-31T08:48:59;6.30;;;3.40;;
870;SDS011;422;51.280;7.236;2023-08-31T08:51:30;5.00;;;3.80;;
870;SDS011;422;51.280;7.236;2023-08-31T08:53:59;4.87;;;3.67;;
870;SDS011;422;51.280;7.236;2023-08-31T08:56:26;5.33;;;3.70;;
870;SDS011;422;51.280;7.236;2023-08-31T08:58:53;5.37;;;3.70;;
870;SDS011;422;51.280;7.236;2023-08-31T09:01:22;4.00;;;3.50;;
870;SDS011;422;51.280;7.236;2023-08-31T09:03:51;5.70;;;3.33;;
870;SDS011;422;51.280;7.236;2023-08-31T09:06:19;3.90;;;3.20;;
870;SDS011;422;51.280;7.236;2023-08-31T09:08:53;4.40;;;3.27;;
870;SDS011;422;51.280;7.236;2023-08-31T09:11:22;3.90;;;3.50;;
870;SDS011;422;51.280;7.236;2023-08-31T09:13:51;5.00;;;3.63;;
870;SDS011;422;51.280;7.236;2023-08-31T09:16:29;7.13;;;3.50;;
870;SDS011;422;51.280;7.236;2023-08-31T09:18:58;6.77;;;3.40;;
870;SDS011;422;51.280;7.236;2023-08-31T09:21:34;3.90;;;3.20;;
870;SDS011;422;51.280;7.236;2023-08-31T09:24:04;5.80;;;3.13;;
870;SDS011;422;51.280;7.236;2023-08-31T09:26:36;3.83;;;3.40;;
870;SDS011;422;51.280;7.236;2023-08-31T09:29:05;5.93;;;3.80;;
870;SDS011;422;51.280;7.236;2023-08-31T09:31:33;4.33;;;2.70;;
870;SDS011;422;51.280;7.236;2023-08-31T09:34:00;8.00;;;3.30;;
870;SDS011;422;51.280;7.236;2023-08-31T09:36:29;4.40;;;3.47;;
870;SDS011;422;51.280;7.236;2023-08-31T09:38:58;6.87;;;3.10;;
870;SDS011;422;51.280;7.236;2023-08-31T09:41:28;5.93;;;3.27;;
870;SDS011;422;51.280;7.236;2023-08-31T09:43:56;3.63;;;2.70;;
870;SDS011;422;51.280;7.236;2023-08-31T09:46:43;3.50;;;2.90;;
870;SDS011;422;51.280;7.236;2023-08-31T09:49:13;4.03;;;2.70;;
870;SDS011;422;51.280;7.236;2023-08-31T09:51:43;5.83;;;3.37;;
870;SDS011;422;51.280;7.236;2023-08-31T09:54:13;5.30;;;3.17;;
870;SDS011;422;51.280;7.236;2023-08-31T09:56:44;3.60;;;2.70;;
870;SDS011;422;51.280;7.236;2023-08-31T09:59:13;4.00;;;2.93;;
870;SDS011;422;51.280;7.236;2023-08-31T10:01:42;4.00;;;3.27;;
870;SDS011;422;51.280;7.236;2023-08-31T10:04:12;4.00;;;3.60;;
870;SDS011;422;51.280;7.236;2023-08-31T10:06:41;4.27;;;3.27;;
870;SDS011;422;51.280;7.236;2023-08-31T10:09:10;5.03;;;3.07;;
870;SDS011;422;51.280;7.236;2023-08-31T10:11:40;4.60;;;2.87;;
870;SDS011;422;51.280;7.236;2023-08-31T10:14:11;5.13;;;3.60;;
870;SDS011;422;51.280;7.236;2023-08-31T10:16:40;4.50;;;2.93;;
870;SDS011;422;51.280;7.236;2023-08-31T10:19:11;4.73;;;3.23;;
870;SDS011;422;51.280;7.236;2023-08-31T10:21:40;5.50;;;2.80;;
870;SDS011;422;51.280;7.236;2023-08-31T10:24:09;5.40;;;3.30;;
870;SDS011;422;51.280;7.236;2023-08-31T10:26:38;4.97;;;3.23;;
870;SDS011;422;51.280;7.236;2023-08-31T10:29:06;3.63;;;2.73;;
870;SDS011;422;51.280;7.236;2023-08-31T10:31:58;4.73;;;2.90;;
870;SDS011;422;51.280;7.236;2023-08-31T10:34:35;4.10;;;2.53;;
870;SDS011;422;51.280;7.236;2023-08-31T10:37:19;2.93;;;2.60;;
870;SDS011;422;51.280;7.236;2023-08-31T10:39:49;7.77;;;3.00;;
870;SDS011;422;51.280;7.236;2023-08-31T10:42:43;4.80;;;3.00;;
870;SDS011;422;51.280;7.236;2023-08-31T10:45:14;7.60;;;3.63;;
870;SDS011;422;51.280;7.236;2023-08-31T10:47:48;3.07;;;2.67;;
870;SDS011;422;51.280;7.236;2023-08-31T10:50:19;9.13;;;2.90;;
870;SDS011;422;51.280;7.236;2023-08-31T10:52:47;4.07;;;3.10;;
870;SDS011;422;51.280;7.236;2023-08-31T10:55:15;3.57;;;2.77;;
870;SDS011;422;51.280;7.236;2023-08-31T10:57:43;3.30;;;2.67;;
870;SDS011;422;51.280;7.236;2023-08-31T11:00:11;7.03;;;4.27;;
870;SDS011;422;51.280;7.236;2023-08-31T11:02:43;5.17;;;3.00;;
870;SDS011;422;51.280;7.236;2023-08-31T11:05:13;3.77;;;3.27;;
870;SDS011;422;51.280;7.236;2023-08-31T11:07:43;7.43;;;2.93;;
870;SDS011;422;51.280;7.236;2023-08-31T11:10:12;4.70;;;3.37;;
870;SDS011;422;51.280;7.236;2023-08-31T11:12:42;4.90;;;3.50;;
870;SDS011;422;51.280;7.236;2023-08-31T11:15:11;6.67;;;3.10;;
870;SDS011;422;51.280;7.236;2023-08-31T11:17:40;6.17;;;4.17;;
870;SDS011;422;51.280;7.236;2023-08-31T11:20:12;4.50;;;3.70;;
870;SDS011;422;51.280;7.236;2023-08-31T11:22:43;5.90;;;4.17;;
870;SDS011;422;51.280;7.236;2023-08-31T11:25:15;7.53;;;3.67;;
870;SDS011;422;51.280;7.236;2023-08-31T11:27:52;4.53;;;3.70;;
870;SDS011;422;51.280;7.236;2023-08-31T11:30:21;5.17;;;4.10;;
870;SDS011;422;51.280;7.236;2023-08-31T11:32:50;5.67;;;3.80;;
870;SDS011;422;51.280;7.236;2023-08-31T11:35:20;7.47;;;4.00;;
870;SDS011;422;51.280;7.236;2023-08-31T11:37:51;6.03;;;4.40;;
870;SDS011;422;51.280;7.236;2023-08-31T11:40:22;5.90;;;3.60;;
870;SDS011;422;51.280;7.236;2023-08-31T11:42:50;4.83;;;3.20;;
870;SDS011;422;51.280;7.236;2023-08-31T11:45:18;4.43;;;3.80;;
870;SDS011;422;51.280;7.236;2023-08-31T11:47:48;5.97;;;3.30;;
870;SDS011;422;51.280;7.236;2023-08-31T11:50:17;5.00;;;3.47;;
870;SDS011;422;51.280;7.236;2023-08-31T11:52:47;6.57;;;4.33;;
870;SDS011;422;51.280;7.236;2023-08-31T11:55:16;7.60;;;3.87;;
870;SDS011;422;51.280;7.236;2023-08-31T11:57:49;6.37;;;3.80;;
870;SDS011;422;51.280;7.236;2023-08-31T12:00:20;5.33;;;3.40;;
870;SDS011;422;51.280;7.236;2023-08-31T12:02:56;5.60;;;3.47;;
870;SDS011;422;51.280;7.236;2023-08-31T12:05:25;4.80;;;2.70;;
870;SDS011;422;51.280;7.236;2023-08-31T12:07:53;6.73;;;3.43;;
870;SDS011;422;51.280;7.236;2023-08-31T12:10:23;7.27;;;4.40;;
870;SDS011;422;51.280;7.236;2023-08-31T12:12:52;4.17;;;3.30;;
870;SDS011;422;51.280;7.236;2023-08-31T12:15:21;4.47;;;3.03;;
870;SDS011;422;51.280;7.236;2023-08-31T12:17:48;4.80;;;3.10;;
870;SDS011;422;51.280;7.236;2023-08-31T12:20:24;4.87;;;3.40;;
870;SDS011;422;51.280;7.236;2023-08-31T12:22:53;3.47;;;3.17;;
870;SDS011;422;51.280;7.236;2023-08-31T12:25:22;3.80;;;2.50;;
870;SDS011;422;51.280;7.236;2023-08-31T12:27:52;5.17;;;3.43;;
870;SDS011;422;51.280;7.236;2023-08-31T12:30:20;4.20;;;3.33;;
870;SDS011;422;51.280;7.236;2023-08-31T12:32:51;4.13;;;3.30;;
870;SDS011;422;51.280;7.236;2023-08-31T12:35:18;6.70;;;3.27;;
870;SDS011;422;51.280;7.236;2023-08-31T12:37:49;6.77;;;3.47;;
870;SDS011;422;51.280;7.236;2023-08-31T12:40:18;4.27;;;3.53;;
870;SDS011;422;51.280;7.236;2023-08-31T12:42:47;6.03;;;3.50;;
870;SDS011;422;51.280;7.236;2023-08-31T12:45:15;4.90;;;3.60;;
870;SDS011;422;51.280;7.236;2023-08-31T12:47:42;4.03;;;3.00;;
870;SDS011;422;51.280;7.236;2023-08-31T12:50:09;7.67;;;3.30;;
870;SDS011;422;51.280;7.236;2023-08-31T12:52:38;4.40;;;2.93;;
870;SDS011;422;51.280;7.236;2023-08-31T12:55:13;3.37;;;2.57;;
870;SDS011;422;51.280;7.236;2023-08-31T12:57:41;3.20;;;2.83;;
870;SDS011;422;51.280;7.236;2023-08-31T13:00:10;3.20;;;2.50;;
870;SDS011;422;51.280;7.236;2023-08-31T13:02:39;3.93;;;3.17;;
870;SDS011;422;51.280;7.236;2023-08-31T13:05:07;3.00;;;2.60;;
870;SDS011;422;51.280;7.236;2023-08-31T13:07:36;4.33;;;2.57;;
870;SDS011;422;51.280;7.236;2023-08-31T13:10:05;3.73;;;3.37;;
870;SDS011;422;51.280;7.236;2023-08-31T13:12:35;3.43;;;2.43;;
870;SDS011;422;51.280;7.236;2023-08-31T13:15:05;7.17;;;3.53;;
870;SDS011;422;51.280;7.236;2023-08-31T13:17:34;6.73;;;3.37;;
870;SDS011;422;51.280;7.236;2023-08-31T13:20:02;6.40;;;3.50;;
870;SDS011;422;51.280;7.236;2023-08-31T13:22:33;4.37;;;3.63;;
870;SDS011;422;51.280;7.236;2023-08-31T13:25:00;3.80;;;3.50;;
870;SDS011;422;51.280;7.236;2023-08-31T13:27:29;4.43;;;2.70;;
870;SDS011;422;51.280;7.236;2023-08-31T13:29:59;4.33;;;3.47;;
870;SDS011;422;51.280;7.236;2023-08-31T13:32:31;4.80;;;3.67;;
870;SDS011;422;51.280;7.236;2023-08-31T13:34:58;4.47;;;2.80;;
870;SDS011;422;51.280;7.236;2023-08-31T13:37:26;3.70;;;3.23;;
870;SDS011;422;51.280;7.236;2023-08-31T13:39:54;6.10;;;3.70;;
870;SDS011;422;51.280;7.236;2023-08-31T13:42:21;5.10;;;4.10;;
870;SDS011;422;51.280;7.236;2023-08-31T13:44:49;5.10;;;3.63;;
870;SDS011;422;51.280;7.236;2023-08-31T13:47:18;4.43;;;3.60;;
870;SDS011;422;51.280;7.236;2023-08-31T13:49:46;5.67;;;4.30;;
870;SDS011;422;51.280;7.236;2023-08-31T13:52:13;4.50;;;3.17;;
870;SDS011;422;51.280;7.236;2023-08-31T13:54:41;8.17;;;4.23;;
870;SDS011;422;51.280;7.236;2023-08-31T13:57:09;4.20;;;3.40;;
870;SDS011;422;51.280;7.236;2023-08-31T13:59:42;6.47;;;3.57;;
870;SDS011;422;51.280;7.236;2023-08-31T14:02:10;7.63;;;4.63;;
870;SDS011;422;51.280;7.236;2023-08-31T14:04:39;7.63;;;3.83;;
870;SDS011;422;51.280;7.236;2023-08-31T14:07:06;5.53;;;4.00;;
870;SDS011;422;51.280;7.236;2023-08-31T14:09:33;5.23;;;3.57;;
870;SDS011;422;51.280;7.236;2023-08-31T14:12:01;6.83;;;4.30;;
870;SDS011;422;51.280;7.236;2023-08-31T14:14:29;4.63;;;3.60;;
870;SDS011;422;51.280;7.236;2023-08-31T14:16:56;6.17;;;3.80;;
870;SDS011;422;51.280;7.236;2023-08-31T14:19:23;7.40;;;3.70;;
870;SDS011;422;51.280;7.236;2023-08-31T14:21:53;6.20;;;4.33;;
870;SDS011;422;51.280;7.236;2023-08-31T14:24:21;5.20;;;3.70;;
870;SDS011;422;51.280;7.236;2023-08-31T14:26:48;5.13;;;4.00;;
870;SDS011;422;51.280;7.236;2023-08-31T14:29:16;5.63;;;4.00;;
870;SDS011;422;51.280;7.236;2023-08-31T14:31:44;7.70;;;3.63;;
870;SDS011;422;51.280;7.236;2023-08-31T14:34:11;4.20;;;3.47;;
870;SDS011;422;51.280;7.236;2023-08-31T14:36:38;4.23;;;3.20;;
870;SDS011;422;51.280;7.236;2023-08-31T14:39:07;6.47;;;3.97;;
870;SDS011;422;51.280;7.236;2023-08-31T14:41:35;5.93;;;4.23;;
870;SDS011;422;51.280;7.236;2023-08-31T14:44:03;4.60;;;3.27;;
870;SDS011;422;51.280;7.236;2023-08-31T14:46:30;4.50;;;3.33;;
870;SDS011;422;51.280;7.236;2023-08-31T14:48:58;3.90;;;3.47;;
870;SDS011;422;51.280;7.236;2023-08-31T14:51:26;4.80;;;3.50;;
870;SDS011;422;51.280;7.236;2023-08-31T14:53:53;6.33;;;3.30;;
870;SDS011;422;51.280;7.236;2023-08-31T14:56:22;5.90;;;3.70;;
870;SDS011;422;51.280;7.236;2023-08-31T14:58:49;4.33;;;3.80;;
870;SDS011;422;51.280;7.236;2023-08-31T15:01:17;5.40;;;4.10;;
870;SDS011;422;51.280;7.236;2023-08-31T15:03:44;3.93;;;3.40;;
870;SDS011;422;51.280;7.236;2023-08-31T15:06:12;5.00;;;3.43;;
870;SDS011;422;51.280;7.236;2023-08-31T15:08:39;5.13;;;3.73;;
870;SDS011;422;51.280;7.236;2023-08-31T15:11:07;4.57;;;3.90;;
870;SDS011;422;51.280;7.236;2023-08-31T15:13:36;3.77;;;3.23;;
870;SDS011;422;51.280;7.236;2023-08-31T15:16:04;4.23;;;3.70;;
870;SDS011;422;51.280;7.236;2023-08-31T15:18:31;11.03;;;3.80;;
870;SDS011;422;51.280;7.236;2023-08-31T15:20:58;8.67;;;4.90;;
870;SDS011;422;51.280;7.236;2023-08-31T15:23:26;12.13;;;5.00;;
870;SDS011;422;51.280;7.236;2023-08-31T15:25:58;5.00;;;4.50;;
870;SDS011;422;51.280;7.236;2023-08-31T15:28:26;8.10;;;5.10;;
870;SDS011;422;51.280;7.236;2023-08-31T15:30:55;5.40;;;4.90;;
870;SDS011;422;51.280;7.236;2023-08-31T15:33:22;7.57;;;6.23;;
870;SDS011;422;51.280;7.236;2023-08-31T15:35:50;10.03;;;5.60;;
870;SDS011;422;51.280;7.236;2023-08-31T15:38:19;6.47;;;5.00;;
870;SDS011;422;51.280;7.236;2023-08-31T15:40:46;4.47;;;4.07;;
870;SDS011;422;51.280;7.236;2023-08-31T15:43:14;5.47;;;4.90;;
870;SDS011;422;51.280;7.236;2023-08-31T15:45:44;9.93;;;5.40;;
870;SDS011;422;51.280;7.236;2023-08-31T15:48:15;6.20;;;5.40;;
870;SDS011;422;51.280;7.236;2023-08-31T15:50:42;5.97;;;5.47;;